Pagrindinis puslapis
METAR-TAF:

METAR-TAF

Oro uostai :

Krajova, Rumunija

platuma: 44-14N, ilguma: 023-52E, Aukštis: 192 m

Dabartinis oras

Ataskaita buvo paskelbta 33 minutes, ne 11:30 UTC
Vėjas 10 kt iš Vakarų, svyruoja nuo Pietvakarių ir Šiaurės/Šiaurės Vakarų
Temperatūra 25°C
Drėgmė 41%
Slėgis 1007 hPa
Matomumas 10 km arba daugiau
nėra debesų žemiau 1500 m ir nėra kamuolinių lietaus debesų

METAR: LRCV 041130Z 27010KT 230V330 CAVOK 25/11 Q1007

Laikas: 15:03 (12:03 UTC)

Prognozė

Ataskaita buvo paskelbta 1 valandą ir 3 minutes, ne 11:00 UTC
Prognozė galioja nuo 04 metu 12 UTC su 04 metu 21 UTC
Vėjas 10 kt iš Vakarų/Pietvakarių
Matomumas 10 km arba daugiau
nėra debesų žemiau 1500 m ir nėra kamuolinių lietaus debesų

TAF: LRCV 041100Z 0412/0421 24010KT CAVOK

Orai ataskaitas ir orų prognozės (METAR, TAF).

turimą stotys yra geltonos ir raudonos taškus žemėlapyje.

Perkelti pele per norėdami pamatyti stoties vardą.

Tada spustelėkite, norėdami matyti oro stebėjimo ir prognozės.

Norėdami pakeisti žemėlapį: spustelėkite ant žalios mygtukų su juodo kryžiaus žemyn,; žalią mygtuką su brūkšneliu, jei norite nutolinti; arba žalių rodyklių gretimoms žemėlapius.


METAR-TAF: